AFR600 TFFF-SOCA
Flight info
| Callsign | AFR600 |
|---|---|
| Flight time | N/A |
| Altitude | 37000 |
| Route | BORUS2R BORUS A555 BGI UA555 BUXEX UA247 SILAT |
| Aircraft | A320/M-SDE3FGHIRWY/LB1 |
Departure
| Time | 2026-05-01 12:56 |
|---|---|
| Airport | Martinique Aimé Césaire International Airport (TFFF) |
Arrival
| Time | N/A |
|---|---|
| Airport | Cayenne – Félix Eboué Airport (SOCA) |
| Time | Latitude | Longitude | Altitude | Speed | Heading |
|---|---|---|---|---|---|
| 2026-05-01 12:10 | 14.59580 | -61.00211 | 19 ft | 0 kts | 62° |
| 2026-05-01 12:41 | 14.59572 | -61.00227 | 17 ft | 4 kts | 64° |
| 2026-05-01 12:42 | 14.59561 | -61.00252 | 19 ft | 4 kts | 72° |
| 2026-05-01 12:42 | 14.59556 | -61.00279 | 18 ft | 4 kts | 93° |
| 2026-05-01 12:42 | 14.59562 | -61.00300 | 18 ft | 2 kts | 150° |
| 2026-05-01 12:42 | 14.59568 | -61.00303 | 23 ft | 0 kts | 152° |
| 2026-05-01 12:45 | 14.59562 | -61.00300 | 18 ft | 2 kts | 152° |
| 2026-05-01 12:45 | 14.59549 | -61.00293 | 22 ft | 3 kts | 153° |
| 2026-05-01 12:45 | 14.59524 | -61.00279 | 19 ft | 6 kts | 150° |
| 2026-05-01 12:46 | 14.59487 | -61.00251 | 19 ft | 8 kts | 140° |
| 2026-05-01 12:46 | 14.59444 | -61.00207 | 19 ft | 9 kts | 131° |
| 2026-05-01 12:46 | 14.59405 | -61.00151 | 18 ft | 10 kts | 120° |
| 2026-05-01 12:46 | 14.59377 | -61.00086 | 21 ft | 10 kts | 110° |
| 2026-05-01 12:47 | 14.59332 | -61.00046 | 19 ft | 8 kts | 169° |
| 2026-05-01 12:47 | 14.59283 | -61.00037 | 20 ft | 6 kts | 170° |
| 2026-05-01 12:47 | 14.59269 | -61.00035 | 20 ft | 0 kts | 170° |
| 2026-05-01 12:48 | 14.59258 | -61.00033 | 20 ft | 2 kts | 170° |
| 2026-05-01 12:48 | 14.59237 | -61.00029 | 20 ft | 4 kts | 171° |
| 2026-05-01 12:48 | 14.59198 | -61.00023 | 21 ft | 6 kts | 173° |
| 2026-05-01 12:49 | 14.59161 | -61.00040 | 18 ft | 6 kts | 228° |
| 2026-05-01 12:49 | 14.59146 | -61.00086 | 17 ft | 7 kts | 258° |
| 2026-05-01 12:49 | 14.59137 | -61.00136 | 16 ft | 7 kts | 259° |
| 2026-05-01 12:49 | 14.59129 | -61.00182 | 16 ft | 6 kts | 259° |
| 2026-05-01 12:50 | 14.59122 | -61.00223 | 16 ft | 5 kts | 259° |
| 2026-05-01 12:50 | 14.59116 | -61.00255 | 16 ft | 4 kts | 259° |
| 2026-05-01 12:50 | 14.59111 | -61.00282 | 16 ft | 5 kts | 260° |
| 2026-05-01 12:50 | 14.59103 | -61.00335 | 16 ft | 10 kts | 262° |
| 2026-05-01 12:51 | 14.59091 | -61.00426 | 15 ft | 15 kts | 260° |
| 2026-05-01 12:51 | 14.59072 | -61.00525 | 15 ft | 13 kts | 260° |
| 2026-05-01 12:51 | 14.59045 | -61.00680 | 19 ft | 11 kts | 259° |
| 2026-05-01 12:52 | 14.59030 | -61.00766 | 22 ft | 14 kts | 260° |
| 2026-05-01 12:52 | 14.59001 | -61.00937 | 22 ft | 11 kts | 260° |
| 2026-05-01 12:52 | 14.58989 | -61.01009 | 24 ft | 9 kts | 260° |
| 2026-05-01 12:53 | 14.58981 | -61.01119 | 24 ft | 5 kts | 298° |
| 2026-05-01 12:53 | 14.58999 | -61.01147 | 24 ft | 4 kts | 304° |
| 2026-05-01 12:53 | 14.59002 | -61.01180 | 25 ft | 4 kts | 242° |
| 2026-05-01 12:54 | 14.58969 | -61.01180 | 25 ft | 6 kts | 140° |
| 2026-05-01 12:54 | 14.58966 | -61.01142 | 24 ft | 0 kts | 81° |
| 2026-05-01 12:56 | 14.58972 | -61.01106 | 23 ft | 28 kts | 81° |
| 2026-05-01 12:56 | 14.59052 | -61.00636 | 18 ft | 101 kts | 80° |
| 2026-05-01 12:56 | 14.59205 | -60.99715 | 48 ft | 153 kts | 81° |
| 2026-05-01 12:56 | 14.59389 | -60.98623 | 668 ft | 155 kts | 84° |
| 2026-05-01 12:57 | 14.59579 | -60.97523 | 1393 ft | 156 kts | 80° |
| 2026-05-01 12:57 | 14.59975 | -60.95351 | 2606 ft | 152 kts | 82° |
| 2026-05-01 12:57 | 14.60152 | -60.94271 | 3081 ft | 153 kts | 82° |
| 2026-05-01 12:58 | 14.60346 | -60.93158 | 3431 ft | 165 kts | 79° |
| 2026-05-01 12:58 | 14.60572 | -60.91939 | 3724 ft | 181 kts | 80° |
| 2026-05-01 12:58 | 14.60811 | -60.90597 | 3987 ft | 200 kts | 81° |
| 2026-05-01 12:59 | 14.59867 | -60.87736 | 4556 ft | 248 kts | 138° |
| 2026-05-01 12:59 | 14.58373 | -60.86733 | 5140 ft | 263 kts | 147° |
| 2026-05-01 12:59 | 14.55144 | -60.84766 | 6654 ft | 276 kts | 145° |
| 2026-05-01 13:00 | 14.51906 | -60.82541 | 8069 ft | 283 kts | 143° |
| 2026-05-01 13:00 | 14.50291 | -60.81358 | 8729 ft | 287 kts | 142° |
| 2026-05-01 13:01 | 14.47027 | -60.78892 | 10050 ft | 294 kts | 141° |
| 2026-05-01 13:01 | 14.45337 | -60.77598 | 10277 ft | 313 kts | 141° |
| 2026-05-01 13:01 | 14.41653 | -60.74775 | 10818 ft | 343 kts | 142° |
| 2026-05-01 13:02 | 14.39718 | -60.73303 | 11355 ft | 348 kts | 143° |
| 2026-05-01 13:07 | 13.96894 | -60.38779 | 21191 ft | 412 kts | 137° |
| 2026-05-01 13:07 | 13.94848 | -60.36700 | 21578 ft | 415 kts | 137° |
| 2026-05-01 13:07 | 13.92785 | -60.34605 | 21974 ft | 418 kts | 137° |
| 2026-05-01 13:08 | 13.90706 | -60.32495 | 22360 ft | 421 kts | 137° |
| 2026-05-01 13:08 | 13.88614 | -60.30371 | 22741 ft | 424 kts | 137° |
| 2026-05-01 13:08 | 13.86505 | -60.28230 | 23118 ft | 427 kts | 137° |
| 2026-05-01 13:08 | 13.84384 | -60.26077 | 23487 ft | 430 kts | 137° |
| 2026-05-01 13:09 | 13.82248 | -60.23909 | 23804 ft | 433 kts | 137° |
| 2026-05-01 13:09 | 13.80104 | -60.21731 | 24118 ft | 435 kts | 137° |
| 2026-05-01 13:09 | 13.77948 | -60.19542 | 24433 ft | 436 kts | 137° |
| 2026-05-01 13:09 | 13.75783 | -60.17345 | 24746 ft | 438 kts | 137° |
| 2026-05-01 13:10 | 13.73607 | -60.15141 | 25048 ft | 440 kts | 137° |
| 2026-05-01 13:10 | 13.71425 | -60.12930 | 25343 ft | 442 kts | 137° |
| 2026-05-01 13:10 | 13.69229 | -60.10707 | 25641 ft | 444 kts | 137° |
| 2026-05-01 13:10 | 13.67024 | -60.08473 | 25940 ft | 445 kts | 137° |
| 2026-05-01 13:11 | 13.64815 | -60.06234 | 26221 ft | 447 kts | 137° |
| 2026-05-01 13:11 | 13.62599 | -60.03985 | 26512 ft | 448 kts | 137° |
| 2026-05-01 13:11 | 13.60376 | -60.01733 | 26807 ft | 450 kts | 137° |
| 2026-05-01 13:11 | 13.58142 | -59.99474 | 27087 ft | 451 kts | 137° |
| 2026-05-01 13:12 | 13.55896 | -59.97201 | 27359 ft | 453 kts | 137° |
| 2026-05-01 13:12 | 13.53650 | -59.94927 | 27629 ft | 455 kts | 137° |
| 2026-05-01 13:12 | 13.51393 | -59.92640 | 27900 ft | 456 kts | 137° |
| 2026-05-01 13:12 | 13.49129 | -59.90349 | 28159 ft | 458 kts | 137° |
| 2026-05-01 13:13 | 13.46854 | -59.88050 | 28413 ft | 460 kts | 137° |
| 2026-05-01 13:13 | 13.44565 | -59.85740 | 28651 ft | 461 kts | 137° |
| 2026-05-01 13:13 | 13.42272 | -59.83427 | 28896 ft | 463 kts | 137° |
| 2026-05-01 13:13 | 13.39971 | -59.81106 | 29124 ft | 465 kts | 137° |
| 2026-05-01 13:14 | 13.37657 | -59.78771 | 29362 ft | 466 kts | 137° |
| 2026-05-01 13:14 | 13.35371 | -59.76464 | 29590 ft | 468 kts | 137° |
| 2026-05-01 13:14 | 13.33017 | -59.74088 | 29829 ft | 469 kts | 137° |
| 2026-05-01 13:14 | 13.30715 | -59.71768 | 30032 ft | 471 kts | 137° |
| 2026-05-01 13:15 | 13.28377 | -59.69410 | 30212 ft | 472 kts | 137° |
| 2026-05-01 13:15 | 13.26027 | -59.67043 | 30382 ft | 474 kts | 137° |
| 2026-05-01 13:15 | 13.23674 | -59.64673 | 30560 ft | 475 kts | 137° |
| 2026-05-01 13:15 | 13.21310 | -59.62289 | 30728 ft | 476 kts | 137° |
| 2026-05-01 13:16 | 13.18945 | -59.59905 | 30930 ft | 477 kts | 137° |
| 2026-05-01 13:16 | 13.16579 | -59.57522 | 31165 ft | 477 kts | 137° |
| 2026-05-01 13:16 | 13.14211 | -59.55137 | 31387 ft | 477 kts | 137° |
| 2026-05-01 13:17 | 13.07099 | -59.47989 | 32040 ft | 477 kts | 139° |
| 2026-05-01 13:17 | 13.04669 | -59.45674 | 32267 ft | 477 kts | 140° |
| 2026-05-01 13:18 | 12.99654 | -59.41229 | 32697 ft | 476 kts | 142° |
| 2026-05-01 13:18 | 12.97116 | -59.39042 | 32915 ft | 476 kts | 142° |
| 2026-05-01 13:18 | 12.94587 | -59.36853 | 33142 ft | 476 kts | 142° |
| 2026-05-01 13:18 | 12.92068 | -59.34646 | 33365 ft | 477 kts | 142° |
| 2026-05-01 13:19 | 12.89558 | -59.32421 | 33616 ft | 476 kts | 141° |
| 2026-05-01 13:19 | 12.87066 | -59.30194 | 33878 ft | 475 kts | 141° |
| 2026-05-01 13:19 | 12.82100 | -59.25744 | 34321 ft | 474 kts | 142° |
| 2026-05-01 13:20 | 12.79618 | -59.23530 | 34530 ft | 473 kts | 142° |
| 2026-05-01 13:20 | 12.77136 | -59.21321 | 34736 ft | 472 kts | 142° |
| 2026-05-01 13:20 | 12.74649 | -59.19111 | 34942 ft | 472 kts | 142° |
| 2026-05-01 13:21 | 12.69702 | -59.14712 | 35333 ft | 471 kts | 142° |
| 2026-05-01 13:21 | 12.67231 | -59.12513 | 35525 ft | 470 kts | 142° |
| 2026-05-01 13:21 | 12.64796 | -59.10347 | 35705 ft | 470 kts | 142° |
| 2026-05-01 13:21 | 12.62330 | -59.08157 | 35876 ft | 469 kts | 142° |
| 2026-05-01 13:22 | 12.59865 | -59.05967 | 36042 ft | 469 kts | 142° |
| 2026-05-01 13:22 | 12.57405 | -59.03783 | 36211 ft | 468 kts | 142° |
| 2026-05-01 13:22 | 12.54944 | -59.01601 | 36373 ft | 468 kts | 142° |
| 2026-05-01 13:22 | 12.52481 | -58.99418 | 36526 ft | 467 kts | 142° |
| 2026-05-01 13:23 | 12.50029 | -58.97243 | 36676 ft | 467 kts | 142° |
| 2026-05-01 13:23 | 12.47573 | -58.95065 | 36822 ft | 467 kts | 142° |
| 2026-05-01 13:23 | 12.45121 | -58.92892 | 36980 ft | 466 kts | 142° |
| 2026-05-01 13:23 | 12.42673 | -58.90721 | 37023 ft | 466 kts | 142° |
| 2026-05-01 13:24 | 12.37784 | -58.86386 | 37023 ft | 465 kts | 142° |
| 2026-05-01 13:25 | 12.30445 | -58.79885 | 37023 ft | 465 kts | 142° |
| 2026-05-01 13:25 | 12.25557 | -58.75552 | 37020 ft | 465 kts | 142° |
| 2026-05-01 13:26 | 12.20666 | -58.71216 | 37021 ft | 465 kts | 142° |
| 2026-05-01 13:26 | 12.15771 | -58.66891 | 37031 ft | 465 kts | 142° |
| 2026-05-01 13:27 | 12.10873 | -58.62569 | 37034 ft | 465 kts | 142° |
| 2026-05-01 13:27 | 12.03537 | -58.56090 | 37035 ft | 464 kts | 142° |
| 2026-05-01 13:28 | 11.96199 | -58.49618 | 37036 ft | 464 kts | 142° |
| 2026-05-01 13:29 | 11.86450 | -58.41017 | 37027 ft | 465 kts | 142° |
| 2026-05-01 13:31 | 11.71767 | -58.28101 | 37035 ft | 464 kts | 142° |
| 2026-05-01 13:32 | 11.59535 | -58.17327 | 37032 ft | 465 kts | 142° |
| 2026-05-01 13:33 | 11.47279 | -58.06565 | 37037 ft | 465 kts | 142° |
| 2026-05-01 13:34 | 11.37485 | -57.97963 | 37035 ft | 464 kts | 142° |
| 2026-05-01 13:35 | 11.30145 | -57.91524 | 37037 ft | 464 kts | 142° |
| 2026-05-01 13:36 | 11.22793 | -57.85099 | 37031 ft | 464 kts | 142° |
| 2026-05-01 13:36 | 11.15479 | -57.78696 | 37028 ft | 464 kts | 142° |
| 2026-05-01 13:37 | 11.10589 | -57.74406 | 37033 ft | 464 kts | 142° |
| 2026-05-01 13:37 | 11.05698 | -57.70124 | 37034 ft | 464 kts | 142° |
| 2026-05-01 13:38 | 10.98359 | -57.63713 | 37031 ft | 463 kts | 142° |
| 2026-05-01 13:39 | 10.93471 | -57.59438 | 37027 ft | 463 kts | 142° |
| 2026-05-01 13:39 | 10.88580 | -57.55162 | 37025 ft | 463 kts | 142° |
| 2026-05-01 13:40 | 10.83685 | -57.50892 | 37022 ft | 463 kts | 142° |
| 2026-05-01 13:40 | 10.78785 | -57.46626 | 37020 ft | 463 kts | 142° |
| 2026-05-01 13:41 | 10.73893 | -57.42363 | 37027 ft | 463 kts | 142° |
| 2026-05-01 13:41 | 10.69009 | -57.38095 | 37031 ft | 463 kts | 142° |
| 2026-05-01 13:42 | 10.64116 | -57.33832 | 37024 ft | 463 kts | 142° |
| 2026-05-01 13:42 | 10.59221 | -57.29574 | 37023 ft | 463 kts | 142° |
| 2026-05-01 13:43 | 10.54325 | -57.25309 | 37023 ft | 464 kts | 142° |
| 2026-05-01 13:43 | 10.49424 | -57.21046 | 37026 ft | 464 kts | 142° |
| 2026-05-01 13:44 | 10.44520 | -57.16786 | 37020 ft | 464 kts | 142° |
| 2026-05-01 13:44 | 10.39647 | -57.12552 | 37028 ft | 464 kts | 142° |
| 2026-05-01 13:45 | 10.34750 | -57.08280 | 37027 ft | 464 kts | 142° |
| 2026-05-01 13:45 | 10.29849 | -57.04013 | 37027 ft | 464 kts | 142° |
| 2026-05-01 13:46 | 10.24926 | -56.99750 | 37028 ft | 465 kts | 142° |
| 2026-05-01 13:46 | 10.20007 | -56.95492 | 37030 ft | 465 kts | 142° |
| 2026-05-01 13:47 | 10.15086 | -56.91226 | 37033 ft | 465 kts | 142° |
| 2026-05-01 13:47 | 10.10170 | -56.86959 | 37028 ft | 465 kts | 142° |
| 2026-05-01 13:48 | 10.05249 | -56.82690 | 37029 ft | 466 kts | 142° |
| 2026-05-01 13:48 | 10.00318 | -56.78414 | 37027 ft | 466 kts | 142° |
| 2026-05-01 13:49 | 9.95380 | -56.74139 | 37027 ft | 467 kts | 142° |
| 2026-05-01 13:49 | 9.90435 | -56.69863 | 37027 ft | 467 kts | 142° |
| 2026-05-01 13:50 | 9.85493 | -56.65588 | 37030 ft | 467 kts | 142° |
| 2026-05-01 13:50 | 9.80545 | -56.61307 | 37032 ft | 467 kts | 142° |
| 2026-05-01 13:51 | 9.75599 | -56.57023 | 37022 ft | 468 kts | 142° |
| 2026-05-01 13:51 | 9.70646 | -56.52733 | 37020 ft | 469 kts | 142° |
| 2026-05-01 13:52 | 9.65678 | -56.48454 | 37028 ft | 469 kts | 142° |
| 2026-05-01 13:52 | 9.61548 | -56.44890 | 37030 ft | 469 kts | 142° |
| 2026-05-01 13:53 | 9.56582 | -56.40593 | 37029 ft | 470 kts | 142° |
| 2026-05-01 13:53 | 9.49123 | -56.34145 | 37032 ft | 470 kts | 142° |
| 2026-05-01 13:54 | 9.44143 | -56.29856 | 37032 ft | 470 kts | 142° |
| 2026-05-01 13:54 | 9.39168 | -56.25569 | 37026 ft | 470 kts | 142° |
| 2026-05-01 13:55 | 9.34184 | -56.21274 | 37025 ft | 470 kts | 142° |
| 2026-05-01 13:55 | 9.29207 | -56.16986 | 37027 ft | 470 kts | 142° |
| 2026-05-01 13:56 | 9.24222 | -56.12699 | 37027 ft | 470 kts | 142° |
| 2026-05-01 13:56 | 9.19233 | -56.08407 | 37028 ft | 470 kts | 142° |
| 2026-05-01 13:57 | 9.14253 | -56.04121 | 37028 ft | 470 kts | 142° |
| 2026-05-01 13:57 | 9.09299 | -55.99860 | 37029 ft | 470 kts | 142° |
| 2026-05-01 13:58 | 9.04313 | -55.95568 | 37029 ft | 470 kts | 142° |
| 2026-05-01 13:58 | 8.99325 | -55.91286 | 37029 ft | 470 kts | 142° |
| 2026-05-01 13:59 | 8.94338 | -55.86998 | 37027 ft | 470 kts | 142° |
| 2026-05-01 13:59 | 8.89356 | -55.82712 | 37029 ft | 470 kts | 142° |
| 2026-05-01 14:00 | 8.84366 | -55.78437 | 37030 ft | 470 kts | 142° |
| 2026-05-01 14:00 | 8.79377 | -55.74160 | 37031 ft | 470 kts | 142° |
| 2026-05-01 14:01 | 8.74389 | -55.69880 | 37019 ft | 470 kts | 142° |
| 2026-05-01 14:01 | 8.69404 | -55.65611 | 37032 ft | 469 kts | 142° |
| 2026-05-01 14:02 | 8.64420 | -55.61347 | 37030 ft | 469 kts | 142° |
| 2026-05-01 14:02 | 8.59446 | -55.57073 | 37025 ft | 469 kts | 142° |
| 2026-05-01 14:03 | 8.54480 | -55.52804 | 37026 ft | 469 kts | 142° |
| 2026-05-01 14:03 | 8.49509 | -55.48547 | 37023 ft | 469 kts | 142° |
| 2026-05-01 14:04 | 8.44528 | -55.44288 | 37028 ft | 469 kts | 142° |
| 2026-05-01 14:04 | 8.39554 | -55.40038 | 37027 ft | 468 kts | 142° |
| 2026-05-01 14:05 | 8.34583 | -55.35788 | 37025 ft | 468 kts | 142° |
| 2026-05-01 14:05 | 8.29619 | -55.31537 | 37024 ft | 468 kts | 142° |
| 2026-05-01 14:06 | 8.24661 | -55.27293 | 37031 ft | 467 kts | 142° |
| 2026-05-01 14:06 | 8.19734 | -55.23083 | 37025 ft | 467 kts | 142° |
| 2026-05-01 14:07 | 8.14772 | -55.18847 | 37023 ft | 467 kts | 142° |
| 2026-05-01 14:08 | 8.07339 | -55.12511 | 37024 ft | 466 kts | 141° |
| 2026-05-01 14:08 | 8.02401 | -55.08285 | 37030 ft | 465 kts | 141° |
| 2026-05-01 14:09 | 7.97472 | -55.04071 | 37036 ft | 464 kts | 142° |
| 2026-05-01 14:09 | 7.92544 | -54.99872 | 37029 ft | 463 kts | 142° |
| 2026-05-01 14:10 | 7.87620 | -54.95680 | 37026 ft | 463 kts | 142° |
| 2026-05-01 14:10 | 7.82710 | -54.91492 | 37023 ft | 462 kts | 142° |
| 2026-05-01 14:11 | 7.77795 | -54.87312 | 37021 ft | 462 kts | 142° |
| 2026-05-01 14:11 | 7.70438 | -54.81048 | 37017 ft | 461 kts | 142° |
| 2026-05-01 14:12 | 7.65543 | -54.76871 | 37024 ft | 461 kts | 142° |
| 2026-05-01 14:12 | 7.60675 | -54.72729 | 37016 ft | 461 kts | 142° |
| 2026-05-01 14:13 | 7.56563 | -54.69237 | 37006 ft | 461 kts | 142° |
| 2026-05-01 14:13 | 7.50863 | -54.64386 | 37003 ft | 462 kts | 142° |
| 2026-05-01 14:14 | 7.45951 | -54.60205 | 37007 ft | 462 kts | 142° |
| 2026-05-01 14:14 | 7.41036 | -54.56019 | 37016 ft | 462 kts | 142° |
| 2026-05-01 14:15 | 7.36130 | -54.51848 | 37024 ft | 461 kts | 142° |
| 2026-05-01 14:15 | 7.31230 | -54.47690 | 37026 ft | 460 kts | 142° |
| 2026-05-01 14:16 | 7.26330 | -54.43535 | 37022 ft | 460 kts | 142° |
| 2026-05-01 14:16 | 7.21434 | -54.39383 | 37016 ft | 460 kts | 142° |
| 2026-05-01 14:17 | 7.16546 | -54.35231 | 37018 ft | 460 kts | 142° |
| 2026-05-01 14:17 | 7.11657 | -54.31075 | 37013 ft | 460 kts | 142° |
| 2026-05-01 14:18 | 7.06772 | -54.26926 | 37025 ft | 459 kts | 142° |
| 2026-05-01 14:18 | 7.02726 | -54.23492 | 37030 ft | 457 kts | 142° |
| 2026-05-01 14:19 | 6.97054 | -54.18690 | 37026 ft | 455 kts | 142° |
| 2026-05-01 14:19 | 6.92214 | -54.14587 | 37025 ft | 454 kts | 142° |
| 2026-05-01 14:20 | 6.84973 | -54.08454 | 37019 ft | 453 kts | 142° |
| 2026-05-01 14:21 | 6.80144 | -54.04369 | 37020 ft | 453 kts | 142° |
| 2026-05-01 14:21 | 6.75342 | -54.00265 | 37023 ft | 454 kts | 138° |
| 2026-05-01 14:22 | 6.68994 | -53.93170 | 37017 ft | 455 kts | 133° |
| 2026-05-01 14:22 | 6.64798 | -53.88413 | 37018 ft | 455 kts | 134° |
| 2026-05-01 14:23 | 6.60598 | -53.83658 | 37020 ft | 455 kts | 134° |
| 2026-05-01 14:23 | 6.58528 | -53.81300 | 37000 ft | 441 kts | 133° |
| 2026-05-01 14:23 | 6.56530 | -53.79001 | 37001 ft | 433 kts | 133° |
| 2026-05-01 14:24 | 6.52614 | -53.74523 | 36620 ft | 427 kts | 134° |
| 2026-05-01 14:24 | 6.50621 | -53.72271 | 36328 ft | 424 kts | 134° |
| 2026-05-01 14:24 | 6.48684 | -53.70089 | 36038 ft | 423 kts | 134° |
| 2026-05-01 14:25 | 6.46734 | -53.67883 | 35752 ft | 422 kts | 134° |
| 2026-05-01 14:25 | 6.44789 | -53.65677 | 35467 ft | 420 kts | 133° |
| 2026-05-01 14:25 | 6.42852 | -53.63482 | 35090 ft | 420 kts | 133° |
| 2026-05-01 14:25 | 6.40909 | -53.61292 | 34621 ft | 419 kts | 133° |
| 2026-05-01 14:26 | 6.38969 | -53.59112 | 34177 ft | 418 kts | 133° |
| 2026-05-01 14:26 | 6.35115 | -53.54758 | 33183 ft | 416 kts | 132° |
| 2026-05-01 14:26 | 6.33194 | -53.52585 | 32683 ft | 415 kts | 131° |
| 2026-05-01 14:27 | 6.31281 | -53.50420 | 32202 ft | 414 kts | 131° |
| 2026-05-01 14:27 | 6.29370 | -53.48255 | 31719 ft | 413 kts | 130° |
| 2026-05-01 14:27 | 6.27465 | -53.46093 | 31255 ft | 412 kts | 130° |
| 2026-05-01 14:28 | 6.23667 | -53.41789 | 30330 ft | 410 kts | 130° |
| 2026-05-01 14:28 | 6.21775 | -53.39645 | 29843 ft | 409 kts | 130° |
| 2026-05-01 14:28 | 6.19888 | -53.37511 | 29321 ft | 408 kts | 130° |
| 2026-05-01 14:28 | 6.18005 | -53.35384 | 28805 ft | 407 kts | 130° |
| 2026-05-01 14:29 | 6.16128 | -53.33264 | 28297 ft | 406 kts | 130° |
| 2026-05-01 14:29 | 6.14258 | -53.31145 | 27798 ft | 404 kts | 130° |
| 2026-05-01 14:30 | 6.08692 | -53.24842 | 26354 ft | 400 kts | 129° |
| 2026-05-01 14:30 | 6.06850 | -53.22754 | 25885 ft | 398 kts | 130° |
| 2026-05-01 14:30 | 6.05014 | -53.20677 | 25426 ft | 396 kts | 130° |
| 2026-05-01 14:31 | 6.01405 | -53.16610 | 24971 ft | 379 kts | 130° |
| 2026-05-01 14:31 | 5.99692 | -53.14676 | 24993 ft | 363 kts | 130° |
| 2026-05-01 14:31 | 5.98054 | -53.12823 | 24997 ft | 347 kts | 130° |
| 2026-05-01 14:31 | 5.96502 | -53.11070 | 24997 ft | 333 kts | 130° |
| 2026-05-01 14:32 | 5.94979 | -53.09339 | 24997 ft | 330 kts | 130° |
| 2026-05-01 14:32 | 5.93961 | -53.08172 | 24997 ft | 328 kts | 129° |
| 2026-05-01 14:32 | 5.91973 | -53.05892 | 24999 ft | 327 kts | 129° |
| 2026-05-01 14:32 | 5.90475 | -53.04177 | 25000 ft | 326 kts | 129° |
| 2026-05-01 14:33 | 5.88978 | -53.02467 | 24997 ft | 325 kts | 130° |
| 2026-05-01 14:33 | 5.87486 | -53.00769 | 24996 ft | 323 kts | 129° |
| 2026-05-01 14:33 | 5.86015 | -52.99093 | 24995 ft | 316 kts | 130° |
| 2026-05-01 14:33 | 5.84589 | -52.97465 | 24994 ft | 305 kts | 130° |
| 2026-05-01 14:34 | 5.83190 | -52.95872 | 24768 ft | 307 kts | 130° |
| 2026-05-01 14:34 | 5.81760 | -52.94244 | 24416 ft | 313 kts | 130° |
| 2026-05-01 14:34 | 5.80304 | -52.92593 | 24069 ft | 317 kts | 130° |
| 2026-05-01 14:34 | 5.78824 | -52.90935 | 23725 ft | 319 kts | 131° |
| 2026-05-01 14:35 | 5.77328 | -52.89295 | 23348 ft | 317 kts | 131° |
| 2026-05-01 14:35 | 5.75836 | -52.87665 | 22934 ft | 316 kts | 131° |
| 2026-05-01 14:35 | 5.74362 | -52.86042 | 22526 ft | 314 kts | 131° |
| 2026-05-01 14:35 | 5.72900 | -52.84416 | 22125 ft | 313 kts | 131° |
| 2026-05-01 14:36 | 5.71451 | -52.82791 | 21722 ft | 312 kts | 130° |
| 2026-05-01 14:36 | 5.70015 | -52.81170 | 21334 ft | 310 kts | 130° |
| 2026-05-01 14:36 | 5.68585 | -52.79552 | 20947 ft | 309 kts | 130° |
| 2026-05-01 14:36 | 5.67160 | -52.77944 | 20567 ft | 308 kts | 130° |
| 2026-05-01 14:37 | 5.65738 | -52.76335 | 20192 ft | 307 kts | 130° |
| 2026-05-01 14:37 | 5.64332 | -52.74747 | 19991 ft | 300 kts | 130° |
| 2026-05-01 14:37 | 5.62969 | -52.73199 | 19993 ft | 295 kts | 129° |
| 2026-05-01 14:37 | 5.61620 | -52.71650 | 19996 ft | 295 kts | 129° |
| 2026-05-01 14:38 | 5.60271 | -52.70101 | 19997 ft | 295 kts | 129° |
| 2026-05-01 14:38 | 5.58919 | -52.68555 | 19997 ft | 295 kts | 129° |
| 2026-05-01 14:38 | 5.58024 | -52.67534 | 19997 ft | 295 kts | 129° |
| 2026-05-01 14:38 | 5.56224 | -52.65493 | 19997 ft | 295 kts | 130° |
| 2026-05-01 14:39 | 5.54863 | -52.63958 | 19996 ft | 295 kts | 130° |
| 2026-05-01 14:39 | 5.53498 | -52.62418 | 19997 ft | 295 kts | 130° |
| 2026-05-01 14:39 | 5.52135 | -52.60881 | 19997 ft | 295 kts | 130° |
| 2026-05-01 14:39 | 5.50771 | -52.59346 | 19997 ft | 295 kts | 130° |
| 2026-05-01 14:40 | 5.49402 | -52.57811 | 19829 ft | 294 kts | 130° |
| 2026-05-01 14:40 | 5.48037 | -52.56304 | 19598 ft | 289 kts | 130° |
| 2026-05-01 14:40 | 5.47145 | -52.55320 | 19450 ft | 287 kts | 131° |
| 2026-05-01 14:40 | 5.45650 | -52.53994 | 19222 ft | 287 kts | 143° |
| 2026-05-01 14:41 | 5.43919 | -52.52991 | 19003 ft | 288 kts | 149° |
| 2026-05-01 14:41 | 5.42149 | -52.52059 | 18779 ft | 287 kts | 148° |
| 2026-05-01 14:41 | 5.40391 | -52.51123 | 18558 ft | 285 kts | 148° |
| 2026-05-01 14:41 | 5.38642 | -52.50190 | 18335 ft | 284 kts | 148° |
| 2026-05-01 14:42 | 5.36900 | -52.49262 | 18094 ft | 283 kts | 148° |
| 2026-05-01 14:42 | 5.35165 | -52.48340 | 17847 ft | 280 kts | 148° |
| 2026-05-01 14:42 | 5.33452 | -52.47434 | 17545 ft | 277 kts | 148° |
| 2026-05-01 14:42 | 5.31757 | -52.46539 | 17205 ft | 275 kts | 148° |
| 2026-05-01 14:43 | 5.30068 | -52.45646 | 16866 ft | 274 kts | 148° |
| 2026-05-01 14:43 | 5.28390 | -52.44755 | 16526 ft | 272 kts | 148° |
| 2026-05-01 14:43 | 5.26722 | -52.43867 | 16194 ft | 271 kts | 148° |
| 2026-05-01 14:43 | 5.25057 | -52.42980 | 15864 ft | 271 kts | 148° |
| 2026-05-01 14:44 | 5.23397 | -52.42096 | 15526 ft | 270 kts | 148° |
| 2026-05-01 14:44 | 5.20087 | -52.40341 | 14880 ft | 269 kts | 148° |
| 2026-05-01 14:44 | 5.18434 | -52.39465 | 14550 ft | 268 kts | 148° |
| 2026-05-01 14:45 | 5.16785 | -52.38590 | 14230 ft | 268 kts | 148° |
| 2026-05-01 14:45 | 5.13489 | -52.36840 | 13546 ft | 268 kts | 148° |
| 2026-05-01 14:45 | 5.11844 | -52.35969 | 13207 ft | 267 kts | 148° |
| 2026-05-01 14:46 | 5.10207 | -52.35100 | 12871 ft | 266 kts | 148° |
| 2026-05-01 14:46 | 5.06839 | -52.33702 | 12210 ft | 269 kts | 173° |
| 2026-05-01 14:46 | 5.04985 | -52.33945 | 11869 ft | 273 kts | 199° |
| 2026-05-01 14:47 | 5.03384 | -52.34973 | 11506 ft | 278 kts | 225° |
| 2026-05-01 14:47 | 5.02356 | -52.36603 | 11135 ft | 279 kts | 247° |
| 2026-05-01 14:47 | 5.01616 | -52.38411 | 10751 ft | 281 kts | 247° |
| 2026-05-01 14:48 | 5.00130 | -52.42021 | 10128 ft | 278 kts | 247° |
| 2026-05-01 14:48 | 4.99394 | -52.43801 | 9819 ft | 276 kts | 247° |
| 2026-05-01 14:48 | 4.97832 | -52.47292 | 9114 ft | 273 kts | 234° |
| 2026-05-01 14:49 | 4.95024 | -52.49677 | 8404 ft | 264 kts | 200° |
| 2026-05-01 14:49 | 4.91620 | -52.50602 | 8014 ft | 249 kts | 190° |
| 2026-05-01 14:50 | 4.88833 | -52.51292 | 7292 ft | 253 kts | 191° |
| 2026-05-01 14:50 | 4.84784 | -52.52295 | 6012 ft | 254 kts | 191° |
| 2026-05-01 14:51 | 4.83085 | -52.52717 | 5521 ft | 249 kts | 191° |
| 2026-05-01 14:51 | 4.79802 | -52.53531 | 4638 ft | 237 kts | 190° |
| 2026-05-01 14:52 | 4.76663 | -52.54140 | 3757 ft | 222 kts | 166° |
| 2026-05-01 14:52 | 4.75362 | -52.53438 | 3441 ft | 206 kts | 126° |
| 2026-05-01 14:52 | 4.75152 | -52.50986 | 3120 ft | 180 kts | 63° |
| 2026-05-01 14:53 | 4.75701 | -52.49840 | 2702 ft | 185 kts | 67° |
| 2026-05-01 14:53 | 4.76224 | -52.48674 | 2400 ft | 182 kts | 67° |
| 2026-05-01 14:53 | 4.76736 | -52.47551 | 2139 ft | 170 kts | 65° |
| 2026-05-01 14:53 | 4.77218 | -52.46504 | 1922 ft | 162 kts | 66° |
| 2026-05-01 14:54 | 4.77665 | -52.45532 | 1741 ft | 146 kts | 66° |
| 2026-05-01 14:54 | 4.78085 | -52.44623 | 1539 ft | 140 kts | 67° |
| 2026-05-01 14:54 | 4.78483 | -52.43762 | 1372 ft | 133 kts | 65° |
| 2026-05-01 14:54 | 4.78886 | -52.42891 | 1189 ft | 139 kts | 66° |
| 2026-05-01 14:55 | 4.79287 | -52.42023 | 1015 ft | 139 kts | 67° |
| 2026-05-01 14:55 | 4.79684 | -52.41165 | 827 ft | 135 kts | 64° |
| 2026-05-01 14:55 | 4.80103 | -52.40318 | 921 ft | 136 kts | 63° |
| 2026-05-01 14:55 | 4.80527 | -52.39482 | 1167 ft | 136 kts | 63° |
| 2026-05-01 14:56 | 4.80955 | -52.38612 | 1318 ft | 145 kts | 65° |
| 2026-05-01 14:56 | 4.81435 | -52.37661 | 1365 ft | 159 kts | 66° |
| 2026-05-01 14:56 | 4.81912 | -52.36654 | 1704 ft | 157 kts | 72° |
| 2026-05-01 14:56 | 4.82007 | -52.35601 | 2074 ft | 156 kts | 99° |
| 2026-05-01 14:57 | 4.81725 | -52.34466 | 2032 ft | 181 kts | 114° |
| 2026-05-01 14:57 | 4.79624 | -52.32701 | 1991 ft | 226 kts | 160° |
| 2026-05-01 14:57 | 4.78020 | -52.32567 | 2006 ft | 234 kts | 182° |
| 2026-05-01 14:58 | 4.76403 | -52.32775 | 2012 ft | 235 kts | 185° |
| 2026-05-01 14:58 | 4.74783 | -52.32984 | 2008 ft | 235 kts | 184° |
| 2026-05-01 14:58 | 4.73165 | -52.33196 | 2007 ft | 234 kts | 187° |
| 2026-05-01 14:58 | 4.71630 | -52.33769 | 2011 ft | 240 kts | 213° |
| 2026-05-01 14:59 | 4.70483 | -52.34953 | 2007 ft | 242 kts | 238° |
| 2026-05-01 14:59 | 4.69866 | -52.36540 | 2013 ft | 247 kts | 254° |
| 2026-05-01 14:59 | 4.69397 | -52.38183 | 2005 ft | 245 kts | 255° |
| 2026-05-01 14:59 | 4.68921 | -52.39851 | 2004 ft | 249 kts | 253° |
| 2026-05-01 15:00 | 4.67980 | -52.43179 | 2007 ft | 251 kts | 254° |
| 2026-05-01 15:00 | 4.67502 | -52.44854 | 2003 ft | 247 kts | 255° |
| 2026-05-01 15:00 | 4.67031 | -52.46511 | 2005 ft | 246 kts | 253° |
| 2026-05-01 15:01 | 4.66562 | -52.48156 | 2011 ft | 245 kts | 253° |
| 2026-05-01 15:01 | 4.66107 | -52.49770 | 1996 ft | 234 kts | 255° |
| 2026-05-01 15:01 | 4.65654 | -52.51344 | 1999 ft | 236 kts | 252° |
| 2026-05-01 15:01 | 4.65182 | -52.52907 | 1995 ft | 232 kts | 252° |
| 2026-05-01 15:02 | 4.64688 | -52.54458 | 2004 ft | 233 kts | 251° |
| 2026-05-01 15:02 | 4.64367 | -52.55493 | 1998 ft | 236 kts | 252° |
| 2026-05-01 15:02 | 4.63724 | -52.57557 | 1994 ft | 234 kts | 252° |
| 2026-05-01 15:02 | 4.63240 | -52.59133 | 1985 ft | 231 kts | 254° |
| 2026-05-01 15:03 | 4.62757 | -52.60662 | 2007 ft | 234 kts | 251° |
| 2026-05-01 15:03 | 4.62302 | -52.62213 | 2000 ft | 233 kts | 259° |
| 2026-05-01 15:03 | 4.62393 | -52.63816 | 2004 ft | 235 kts | 294° |
| 2026-05-01 15:03 | 4.63290 | -52.65123 | 1997 ft | 225 kts | 326° |
| 2026-05-01 15:04 | 4.64687 | -52.65718 | 1997 ft | 218 kts | 359° |
| 2026-05-01 15:04 | 4.66190 | -52.65686 | 1992 ft | 213 kts | 9° |
| 2026-05-01 15:04 | 4.67594 | -52.65433 | 1985 ft | 201 kts | 26° |
| 2026-05-01 15:04 | 4.68681 | -52.64631 | 2025 ft | 192 kts | 48° |
| 2026-05-01 15:05 | 4.69403 | -52.63503 | 2009 ft | 192 kts | 65° |
| 2026-05-01 15:05 | 4.69983 | -52.62303 | 2000 ft | 192 kts | 65° |
| 2026-05-01 15:05 | 4.70556 | -52.61109 | 1993 ft | 189 kts | 66° |
| 2026-05-01 15:05 | 4.71111 | -52.59893 | 1998 ft | 193 kts | 67° |
| 2026-05-01 15:06 | 4.71629 | -52.58686 | 1988 ft | 181 kts | 68° |
| 2026-05-01 15:06 | 4.72135 | -52.57555 | 1994 ft | 173 kts | 65° |
| 2026-05-01 15:06 | 4.72633 | -52.56474 | 1994 ft | 172 kts | 65° |
| 2026-05-01 15:06 | 4.73134 | -52.55375 | 2011 ft | 174 kts | 66° |
| 2026-05-01 15:07 | 4.73631 | -52.54291 | 1995 ft | 167 kts | 64° |
| 2026-05-01 15:07 | 4.74125 | -52.53227 | 2005 ft | 168 kts | 66° |
| 2026-05-01 15:07 | 4.74614 | -52.52162 | 1998 ft | 166 kts | 64° |
| 2026-05-01 15:07 | 4.75094 | -52.51124 | 1996 ft | 166 kts | 65° |
| 2026-05-01 15:08 | 4.75585 | -52.50057 | 2002 ft | 168 kts | 64° |
| 2026-05-01 15:08 | 4.76066 | -52.49017 | 2016 ft | 166 kts | 66° |
| 2026-05-01 15:08 | 4.76543 | -52.47983 | 2004 ft | 163 kts | 65° |
| 2026-05-01 15:08 | 4.77030 | -52.46932 | 1938 ft | 169 kts | 66° |
| 2026-05-01 15:09 | 4.77508 | -52.45882 | 1770 ft | 160 kts | 66° |
| 2026-05-01 15:09 | 4.77955 | -52.44906 | 1594 ft | 148 kts | 66° |
| 2026-05-01 15:09 | 4.78358 | -52.44033 | 1427 ft | 135 kts | 65° |
| 2026-05-01 15:09 | 4.78768 | -52.43150 | 1249 ft | 141 kts | 66° |
| 2026-05-01 15:10 | 4.79176 | -52.42268 | 1069 ft | 142 kts | 66° |
| 2026-05-01 15:10 | 4.79989 | -52.40498 | 725 ft | 145 kts | 66° |
| 2026-05-01 15:10 | 4.80402 | -52.39603 | 535 ft | 138 kts | 64° |
| 2026-05-01 15:11 | 4.80800 | -52.38741 | 351 ft | 134 kts | 63° |
| 2026-05-01 15:11 | 4.81575 | -52.37057 | 37 ft | 125 kts | 68° |
| 2026-05-01 15:11 | 4.81923 | -52.36336 | 45 ft | 113 kts | 56° |
| 2026-05-01 15:12 | 4.82259 | -52.35613 | 127 ft | 115 kts | 57° |
| 2026-05-01 15:12 | 4.83035 | -52.34121 | 474 ft | 128 kts | 57° |
| 2026-05-01 15:12 | 4.83503 | -52.33338 | 741 ft | 133 kts | 57° |
| 2026-05-01 15:13 | 4.84267 | -52.30570 | 1510 ft | 143 kts | 105° |
| 2026-05-01 15:14 | 4.82502 | -52.29685 | 2040 ft | 160 kts | 189° |
| 2026-05-01 15:14 | 4.81545 | -52.30373 | 2061 ft | 187 kts | 239° |
| 2026-05-01 15:14 | 4.80448 | -52.33056 | 2001 ft | 229 kts | 250° |
| 2026-05-01 15:15 | 4.80137 | -52.36355 | 2012 ft | 255 kts | 283° |
| 2026-05-01 15:15 | 4.80954 | -52.39936 | 2284 ft | 266 kts | 283° |
| 2026-05-01 15:16 | 4.81794 | -52.43519 | 3041 ft | 268 kts | 285° |
| 2026-05-01 15:16 | 4.82714 | -52.47297 | 3497 ft | 283 kts | 285° |
| 2026-05-01 15:17 | 4.83663 | -52.51127 | 4105 ft | 285 kts | 284° |
| 2026-05-01 15:18 | 4.85110 | -52.56951 | 5069 ft | 290 kts | 285° |
| 2026-05-01 15:18 | 4.85597 | -52.58909 | 5372 ft | 292 kts | 286° |
| 2026-05-01 15:19 | 4.87078 | -52.64862 | 6419 ft | 297 kts | 285° |
| 2026-05-01 15:19 | 4.88076 | -52.68896 | 6956 ft | 300 kts | 285° |
| 2026-05-01 15:19 | 4.88580 | -52.70928 | 7256 ft | 301 kts | 285° |
| 2026-05-01 15:20 | 4.89591 | -52.75014 | 7418 ft | 309 kts | 290° |
| 2026-05-01 15:20 | 4.90513 | -52.77133 | 7194 ft | 332 kts | 295° |
| 2026-05-01 15:20 | 4.91291 | -52.79252 | 7890 ft | 314 kts | 287° |
| 2026-05-01 15:21 | 4.91746 | -52.81359 | 8317 ft | 306 kts | 281° |
| 2026-05-01 15:21 | 4.91874 | -52.82153 | 8371 ft | 305 kts | 279° |